sensor_id;sensor_type;location;lat;lon;timestamp;pressure;altitude;pressure_sealevel;temperature;humidity
12949;BME280;6539;49.476;8.484;2023-03-26T00:01:39;100044.72;;;11.50;67.21
12949;BME280;6539;49.476;8.484;2023-03-26T00:04:09;100043.22;;;11.46;67.50
12949;BME280;6539;49.476;8.484;2023-03-26T00:06:39;100045.06;;;11.52;67.70
12949;BME280;6539;49.476;8.484;2023-03-26T00:09:09;100038.44;;;11.50;68.34
12949;BME280;6539;49.476;8.484;2023-03-26T00:11:37;100038.41;;;11.54;68.02
12949;BME280;6539;49.476;8.484;2023-03-26T00:14:03;100021.91;;;11.54;68.27
12949;BME280;6539;49.476;8.484;2023-03-26T00:16:31;100031.41;;;11.49;67.92
12949;BME280;6539;49.476;8.484;2023-03-26T00:18:58;100027.56;;;11.43;68.34
12949;BME280;6539;49.476;8.484;2023-03-26T00:21:28;100023.63;;;11.44;67.78
12949;BME280;6539;49.476;8.484;2023-03-26T00:24:01;100022.72;;;11.50;67.83
12949;BME280;6539;49.476;8.484;2023-03-26T00:26:30;100018.38;;;11.53;67.38
12949;BME280;6539;49.476;8.484;2023-03-26T00:28:58;100021.91;;;11.54;67.59
12949;BME280;6539;49.476;8.484;2023-03-26T00:31:25;100023.91;;;11.49;67.59
12949;BME280;6539;49.476;8.484;2023-03-26T00:33:53;100031.41;;;11.49;68.02
12949;BME280;6539;49.476;8.484;2023-03-26T00:36:22;100029.13;;;11.44;67.81
12949;BME280;6539;49.476;8.484;2023-03-26T00:38:51;100023.81;;;11.33;67.93
12949;BME280;6539;49.476;8.484;2023-03-26T00:41:20;100026.94;;;11.35;67.77
12949;BME280;6539;49.476;8.484;2023-03-26T00:44:01;100032.13;;;11.30;68.12
12949;BME280;6539;49.476;8.484;2023-03-26T00:46:30;100027.75;;;11.32;68.33
12949;BME280;6539;49.476;8.484;2023-03-26T00:48:58;100025.44;;;11.31;68.16
12949;BME280;6539;49.476;8.484;2023-03-26T00:51:26;100019.59;;;11.29;68.12
12949;BME280;6539;49.476;8.484;2023-03-26T00:53:56;100013.50;;;11.18;68.25
12949;BME280;6539;49.476;8.484;2023-03-26T00:56:27;100015.53;;;11.14;68.70
12949;BME280;6539;49.476;8.484;2023-03-26T00:58:53;100013.06;;;11.19;68.40
12949;BME280;6539;49.476;8.484;2023-03-26T01:01:23;100008.31;;;11.23;68.01
12949;BME280;6539;49.476;8.484;2023-03-26T01:03:57;100003.28;;;11.18;68.13
12949;BME280;6539;49.476;8.484;2023-03-26T01:06:32;100000.47;;;11.22;68.11
12949;BME280;6539;49.476;8.484;2023-03-26T01:09:13;99996.66;;;11.16;67.96
12949;BME280;6539;49.476;8.484;2023-03-26T01:11:42;99994.00;;;11.09;68.30
12949;BME280;6539;49.476;8.484;2023-03-26T01:14:24;99988.41;;;11.16;68.03
12949;BME280;6539;49.476;8.484;2023-03-26T01:17:00;99987.94;;;11.21;67.94
12949;BME280;6539;49.476;8.484;2023-03-26T01:22:18;99977.94;;;11.30;66.98
12949;BME280;6539;49.476;8.484;2023-03-26T01:24:45;99973.56;;;11.33;66.78
12949;BME280;6539;49.476;8.484;2023-03-26T01:30:20;99968.94;;;11.30;66.70
12949;BME280;6539;49.476;8.484;2023-03-26T01:36:05;99950.41;;;11.34;66.58
12949;BME280;6539;49.476;8.484;2023-03-26T01:38:59;99951.47;;;11.40;66.70
12949;BME280;6539;49.476;8.484;2023-03-26T01:41:44;99942.66;;;11.29;66.18
12949;BME280;6539;49.476;8.484;2023-03-26T01:44:30;99937.50;;;11.31;66.52
12949;BME280;6539;49.476;8.484;2023-03-26T01:47:02;99930.88;;;11.28;66.53
12949;BME280;6539;49.476;8.484;2023-03-26T01:49:30;99929.75;;;11.26;66.55
12949;BME280;6539;49.476;8.484;2023-03-26T01:51:58;99932.84;;;11.28;66.50
12949;BME280;6539;49.476;8.484;2023-03-26T01:54:27;99920.78;;;11.22;66.21
12949;BME280;6539;49.476;8.484;2023-03-26T02:06:05;99903.00;;;11.30;66.16
12949;BME280;6539;49.476;8.484;2023-03-26T02:08:39;99910.09;;;11.27;66.47
12949;BME280;6539;49.476;8.484;2023-03-26T02:11:11;99900.16;;;11.33;66.32
12949;BME280;6539;49.476;8.484;2023-03-26T02:13:42;99892.19;;;11.39;66.23
12949;BME280;6539;49.476;8.484;2023-03-26T02:16:13;99877.75;;;11.35;66.04
12949;BME280;6539;49.476;8.484;2023-03-26T02:18:45;99882.41;;;11.38;65.46
12949;BME280;6539;49.476;8.484;2023-03-26T02:21:21;99873.81;;;11.36;65.71
12949;BME280;6539;49.476;8.484;2023-03-26T02:23:56;99874.16;;;11.38;65.61
12949;BME280;6539;49.476;8.484;2023-03-26T02:26:29;99865.13;;;11.37;65.23
12949;BME280;6539;49.476;8.484;2023-03-26T02:28:56;99860.63;;;11.47;65.14
12949;BME280;6539;49.476;8.484;2023-03-26T02:31:23;99861.81;;;11.46;65.01
12949;BME280;6539;49.476;8.484;2023-03-26T02:33:53;99856.31;;;11.46;64.98
12949;BME280;6539;49.476;8.484;2023-03-26T02:36:20;99842.94;;;11.48;64.80
12949;BME280;6539;49.476;8.484;2023-03-26T02:38:49;99844.50;;;11.49;64.73
12949;BME280;6539;49.476;8.484;2023-03-26T02:41:16;99832.72;;;11.48;64.46
12949;BME280;6539;49.476;8.484;2023-03-26T02:43:42;99835.91;;;11.47;64.71
12949;BME280;6539;49.476;8.484;2023-03-26T02:46:08;99829.88;;;11.52;63.96
12949;BME280;6539;49.476;8.484;2023-03-26T02:48:33;99823.69;;;11.48;64.27
12949;BME280;6539;49.476;8.484;2023-03-26T02:51:03;99823.69;;;11.48;64.37
12949;BME280;6539;49.476;8.484;2023-03-26T02:53:32;99822.16;;;11.47;64.56
12949;BME280;6539;49.476;8.484;2023-03-26T02:56:00;99813.91;;;11.47;64.77
12949;BME280;6539;49.476;8.484;2023-03-26T02:58:28;99809.03;;;11.55;64.72
12949;BME280;6539;49.476;8.484;2023-03-26T03:00:56;99801.22;;;11.53;64.26
12949;BME280;6539;49.476;8.484;2023-03-26T03:03:26;99794.94;;;11.52;64.11
12949;BME280;6539;49.476;8.484;2023-03-26T03:05:53;99788.84;;;11.45;64.46
12949;BME280;6539;49.476;8.484;2023-03-26T03:08:25;99789.53;;;11.49;64.08
12949;BME280;6539;49.476;8.484;2023-03-26T03:13:30;99776.19;;;11.47;64.22
12949;BME280;6539;49.476;8.484;2023-03-26T03:16:00;99768.56;;;11.55;64.11
12949;BME280;6539;49.476;8.484;2023-03-26T03:18:31;99770.28;;;11.49;64.51
12949;BME280;6539;49.476;8.484;2023-03-26T03:21:02;99773.03;;;11.49;64.48
12949;BME280;6539;49.476;8.484;2023-03-26T03:23:28;99764.69;;;11.52;64.75
12949;BME280;6539;49.476;8.484;2023-03-26T03:25:53;99773.72;;;11.53;64.68
12949;BME280;6539;49.476;8.484;2023-03-26T03:28:24;99770.63;;;11.51;64.44
12949;BME280;6539;49.476;8.484;2023-03-26T03:30:50;99773.28;;;11.38;65.25
12949;BME280;6539;49.476;8.484;2023-03-26T03:33:25;99757.53;;;11.39;65.30
12949;BME280;6539;49.476;8.484;2023-03-26T03:35:54;99759.34;;;11.45;65.46
12949;BME280;6539;49.476;8.484;2023-03-26T03:38:22;99751.44;;;11.47;65.24
12949;BME280;6539;49.476;8.484;2023-03-26T03:40:50;99745.91;;;11.51;64.63
12949;BME280;6539;49.476;8.484;2023-03-26T03:43:21;99736.03;;;11.54;64.71
12949;BME280;6539;49.476;8.484;2023-03-26T03:45:46;99734.38;;;11.40;64.78
12949;BME280;6539;49.476;8.484;2023-03-26T03:48:14;99727.59;;;11.44;64.49
12949;BME280;6539;49.476;8.484;2023-03-26T03:50:42;99730.34;;;11.44;64.47
12949;BME280;6539;49.476;8.484;2023-03-26T03:53:08;99722.69;;;11.52;64.49
12949;BME280;6539;49.476;8.484;2023-03-26T03:55:34;99725.88;;;11.50;64.55
12949;BME280;6539;49.476;8.484;2023-03-26T03:58:04;99717.00;;;11.43;64.72
12949;BME280;6539;49.476;8.484;2023-03-26T04:00:30;99714.44;;;11.52;64.56
12949;BME280;6539;49.476;8.484;2023-03-26T04:03:01;99715.47;;;11.58;64.18
12949;BME280;6539;49.476;8.484;2023-03-26T04:05:32;99707.13;;;11.45;64.03
12949;BME280;6539;49.476;8.484;2023-03-26T04:08:01;99705.41;;;11.51;64.28
12949;BME280;6539;49.476;8.484;2023-03-26T04:10:26;99695.53;;;11.54;64.16
12949;BME280;6539;49.476;8.484;2023-03-26T04:12:55;99683.38;;;11.55;64.02
12949;BME280;6539;49.476;8.484;2023-03-26T04:15:20;99677.78;;;11.59;63.94
12949;BME280;6539;49.476;8.484;2023-03-26T04:17:46;99669.19;;;11.57;63.68
12949;BME280;6539;49.476;8.484;2023-03-26T04:20:12;99669.69;;;11.51;63.90
12949;BME280;6539;49.476;8.484;2023-03-26T04:22:46;99674.16;;;11.45;65.05
12949;BME280;6539;49.476;8.484;2023-03-26T04:25:14;99662.41;;;11.45;65.64
12949;BME280;6539;49.476;8.484;2023-03-26T04:27:41;99658.94;;;11.41;65.82
12949;BME280;6539;49.476;8.484;2023-03-26T04:30:13;99654.72;;;11.36;66.02
12949;BME280;6539;49.476;8.484;2023-03-26T04:32:41;99644.44;;;11.24;66.19
12949;BME280;6539;49.476;8.484;2023-03-26T04:35:14;99640.22;;;11.04;67.29
12949;BME280;6539;49.476;8.484;2023-03-26T04:37:43;99640.34;;;10.97;67.91
12949;BME280;6539;49.476;8.484;2023-03-26T04:40:17;99646.53;;;11.01;67.79
12949;BME280;6539;49.476;8.484;2023-03-26T04:42:44;99637.72;;;11.09;67.52
12949;BME280;6539;49.476;8.484;2023-03-26T04:45:17;99633.59;;;11.17;67.34
12949;BME280;6539;49.476;8.484;2023-03-26T04:47:47;99627.06;;;11.11;67.43
12949;BME280;6539;49.476;8.484;2023-03-26T04:50:16;99625.09;;;11.12;67.48
12949;BME280;6539;49.476;8.484;2023-03-26T04:52:44;99618.50;;;11.09;67.56
12949;BME280;6539;49.476;8.484;2023-03-26T04:55:32;99604.66;;;11.13;67.43
12949;BME280;6539;49.476;8.484;2023-03-26T04:58:02;99605.03;;;11.15;67.45
12949;BME280;6539;49.476;8.484;2023-03-26T05:00:30;99605.44;;;11.13;67.87
12949;BME280;6539;49.476;8.484;2023-03-26T05:02:57;99607.25;;;11.04;68.03
12949;BME280;6539;49.476;8.484;2023-03-26T05:05:27;99594.50;;;10.94;68.66
12949;BME280;6539;49.476;8.484;2023-03-26T05:07:58;99589.56;;;10.89;69.19
12949;BME280;6539;49.476;8.484;2023-03-26T05:10:26;99583.28;;;10.88;69.14
12949;BME280;6539;49.476;8.484;2023-03-26T05:12:54;99578.56;;;10.89;69.50
12949;BME280;6539;49.476;8.484;2023-03-26T05:15:20;99568.97;;;10.97;69.44
12949;BME280;6539;49.476;8.484;2023-03-26T05:17:49;99573.75;;;11.09;69.23
12949;BME280;6539;49.476;8.484;2023-03-26T05:20:25;99565.53;;;11.09;69.39
12949;BME280;6539;49.476;8.484;2023-03-26T05:22:52;99559.88;;;11.16;68.92
12949;BME280;6539;49.476;8.484;2023-03-26T05:25:23;99558.59;;;11.20;68.57
12949;BME280;6539;49.476;8.484;2023-03-26T05:27:48;99562.19;;;11.17;68.66
12949;BME280;6539;49.476;8.484;2023-03-26T05:30:21;99558.59;;;11.20;68.46
12949;BME280;6539;49.476;8.484;2023-03-26T05:32:48;99559.19;;;11.12;68.63
12949;BME280;6539;49.476;8.484;2023-03-26T05:35:15;99555.41;;;11.06;68.82
12949;BME280;6539;49.476;8.484;2023-03-26T05:37:45;99552.91;;;10.95;69.64
12949;BME280;6539;49.476;8.484;2023-03-26T05:40:15;99546.91;;;11.00;69.85
12949;BME280;6539;49.476;8.484;2023-03-26T05:42:43;99544.16;;;11.00;69.79
12949;BME280;6539;49.476;8.484;2023-03-26T05:45:12;99540.56;;;11.03;70.07
12949;BME280;6539;49.476;8.484;2023-03-26T05:47:38;99529.31;;;10.98;70.55
12949;BME280;6539;49.476;8.484;2023-03-26T05:50:05;99521.50;;;10.96;70.90
12949;BME280;6539;49.476;8.484;2023-03-26T05:52:34;99519.34;;;10.88;71.29
12949;BME280;6539;49.476;8.484;2023-03-26T05:55:02;99518.84;;;10.93;71.44
12949;BME280;6539;49.476;8.484;2023-03-26T05:57:32;99514.19;;;10.90;71.34
12949;BME280;6539;49.476;8.484;2023-03-26T06:00:01;99513.69;;;10.95;71.38
12949;BME280;6539;49.476;8.484;2023-03-26T06:02:27;99508.28;;;10.91;72.05
12949;BME280;6539;49.476;8.484;2023-03-26T06:04:54;99499.78;;;10.86;72.54
12949;BME280;6539;49.476;8.484;2023-03-26T06:07:22;99493.25;;;10.63;73.82
12949;BME280;6539;49.476;8.484;2023-03-26T06:09:54;99499.50;;;10.64;74.11
12949;BME280;6539;49.476;8.484;2023-03-26T06:12:20;99498.06;;;10.59;74.66
12949;BME280;6539;49.476;8.484;2023-03-26T06:14:46;99485.34;;;10.49;75.14
12949;BME280;6539;49.476;8.484;2023-03-26T06:17:12;99483.06;;;10.64;75.09
12949;BME280;6539;49.476;8.484;2023-03-26T06:19:38;99475.78;;;10.73;74.73
12949;BME280;6539;49.476;8.484;2023-03-26T06:22:04;99472.50;;;10.79;74.77
12949;BME280;6539;49.476;8.484;2023-03-26T06:24:32;99466.59;;;10.80;74.72
12949;BME280;6539;49.476;8.484;2023-03-26T06:26:59;99462.81;;;10.90;74.63
12949;BME280;6539;49.476;8.484;2023-03-26T06:29:27;99456.03;;;10.95;74.63
12949;BME280;6539;49.476;8.484;2023-03-26T06:31:53;99455.31;;;11.07;74.10
12949;BME280;6539;49.476;8.484;2023-03-26T06:34:19;99453.00;;;10.89;73.95
12949;BME280;6539;49.476;8.484;2023-03-26T06:36:44;99453.00;;;10.89;73.94
12949;BME280;6539;49.476;8.484;2023-03-26T06:39:13;99447.13;;;10.91;74.26
12949;BME280;6539;49.476;8.484;2023-03-26T06:41:41;99432.94;;;10.92;74.45
12949;BME280;6539;49.476;8.484;2023-03-26T06:44:07;99427.28;;;10.99;75.03
12949;BME280;6539;49.476;8.484;2023-03-26T06:46:32;99419.63;;;11.07;74.64
12949;BME280;6539;49.476;8.484;2023-03-26T06:49:00;99419.53;;;11.10;74.70
12949;BME280;6539;49.476;8.484;2023-03-26T06:51:30;99429.75;;;11.10;74.34
12949;BME280;6539;49.476;8.484;2023-03-26T06:53:59;99419.88;;;11.12;73.90
12949;BME280;6539;49.476;8.484;2023-03-26T06:56:24;99421.69;;;11.03;74.35
12949;BME280;6539;49.476;8.484;2023-03-26T06:58:50;99422.28;;;11.10;74.45
12949;BME280;6539;49.476;8.484;2023-03-26T07:01:18;99415.59;;;11.11;74.21
12949;BME280;6539;49.476;8.484;2023-03-26T07:03:44;99416.19;;;11.03;74.67
12949;BME280;6539;49.476;8.484;2023-03-26T07:06:10;99421.84;;;11.12;74.16
12949;BME280;6539;49.476;8.484;2023-03-26T07:08:36;99412.06;;;11.11;74.68
12949;BME280;6539;49.476;8.484;2023-03-26T07:11:04;99401.69;;;11.02;74.87
12949;BME280;6539;49.476;8.484;2023-03-26T07:13:30;99408.28;;;11.05;74.99
12949;BME280;6539;49.476;8.484;2023-03-26T07:15:56;99407.53;;;11.04;74.55
12949;BME280;6539;49.476;8.484;2023-03-26T07:18:22;99403.06;;;11.10;74.43
12949;BME280;6539;49.476;8.484;2023-03-26T07:20:51;99398.00;;;11.09;74.44
12949;BME280;6539;49.476;8.484;2023-03-26T07:23:19;99388.13;;;11.11;74.56
12949;BME280;6539;49.476;8.484;2023-03-26T07:25:47;99395.44;;;11.02;74.78
12949;BME280;6539;49.476;8.484;2023-03-26T07:28:41;99390.38;;;11.00;75.40
12949;BME280;6539;49.476;8.484;2023-03-26T07:31:33;99386.88;;;11.00;75.70
12949;BME280;6539;49.476;8.484;2023-03-26T07:37:26;99377.47;;;10.85;75.61
12949;BME280;6539;49.476;8.484;2023-03-26T07:40:19;99371.09;;;10.88;76.02
12949;BME280;6539;49.476;8.484;2023-03-26T07:45:48;99363.72;;;10.85;76.30
12949;BME280;6539;49.476;8.484;2023-03-26T07:48:24;99358.03;;;10.92;76.96
12949;BME280;6539;49.476;8.484;2023-03-26T07:50:55;99358.25;;;10.85;77.45
12949;BME280;6539;49.476;8.484;2023-03-26T07:53:24;99368.53;;;10.81;77.23
12949;BME280;6539;49.476;8.484;2023-03-26T07:56:17;99365.81;;;10.64;78.18
12949;BME280;6539;49.476;8.484;2023-03-26T08:05:12;99369.25;;;10.68;79.51
12949;BME280;6539;49.476;8.484;2023-03-26T08:08:01;99369.06;;;10.59;80.34
12949;BME280;6539;49.476;8.484;2023-03-26T08:13:53;99384.34;;;10.60;80.82
12949;BME280;6539;49.476;8.484;2023-03-26T08:16:38;99380.16;;;10.56;81.65
12949;BME280;6539;49.476;8.484;2023-03-26T08:20:36;99381.66;;;10.57;81.90
12949;BME280;6539;49.476;8.484;2023-03-26T08:22:40;99381.53;;;10.48;82.58
12949;BME280;6539;49.476;8.484;2023-03-26T08:25:33;99380.22;;;10.52;82.97
12949;BME280;6539;49.476;8.484;2023-03-26T08:31:08;99366.28;;;10.31;83.16
12949;BME280;6539;49.476;8.484;2023-03-26T08:33:35;99365.84;;;10.32;84.61
12949;BME280;6539;49.476;8.484;2023-03-26T08:36:08;99363.78;;;10.36;84.72
12949;BME280;6539;49.476;8.484;2023-03-26T08:38:36;99349.44;;;10.45;84.93
12949;BME280;6539;49.476;8.484;2023-03-26T08:52:56;99341.28;;;10.57;84.13
12949;BME280;6539;49.476;8.484;2023-03-26T08:55:55;99344.81;;;10.42;84.90
12949;BME280;6539;49.476;8.484;2023-03-26T09:11:19;99311.19;;;10.99;85.32
12949;BME280;6539;49.476;8.484;2023-03-26T09:19:57;99302.41;;;12.33;78.14
12949;BME280;6539;49.476;8.484;2023-03-26T09:37:57;99296.94;;;11.95;72.13
12949;BME280;6539;49.476;8.484;2023-03-26T09:55:54;99289.91;;;12.07;72.65
12949;BME280;6539;49.476;8.484;2023-03-26T09:58:39;99288.03;;;12.04;71.26
12949;BME280;6539;49.476;8.484;2023-03-26T10:01:37;99270.25;;;12.30;72.01
12949;BME280;6539;49.476;8.484;2023-03-26T10:04:49;99274.75;;;12.71;71.38
12949;BME280;6539;49.476;8.484;2023-03-26T10:08:01;99253.13;;;13.03;69.77
12949;BME280;6539;49.476;8.484;2023-03-26T10:10:51;99252.63;;;13.88;68.29
12949;BME280;6539;49.476;8.484;2023-03-26T10:16:25;99250.50;;;14.68;64.50
12949;BME280;6539;49.476;8.484;2023-03-26T10:19:14;99240.28;;;15.10;63.50
12949;BME280;6539;49.476;8.484;2023-03-26T10:28:17;99223.97;;;15.31;59.15
12949;BME280;6539;49.476;8.484;2023-03-26T10:34:30;99240.75;;;15.18;59.29
12949;BME280;6539;49.476;8.484;2023-03-26T10:38:04;99251.69;;;14.67;61.15
12949;BME280;6539;49.476;8.484;2023-03-26T10:40:23;99240.75;;;14.18;63.38
12949;BME280;6539;49.476;8.484;2023-03-26T10:43:19;99242.09;;;14.05;64.55
12949;BME280;6539;49.476;8.484;2023-03-26T10:51:49;99240.09;;;13.56;68.17
12949;BME280;6539;49.476;8.484;2023-03-26T10:54:54;99254.31;;;13.24;70.10
12949;BME280;6539;49.476;8.484;2023-03-26T11:00:27;99237.75;;;13.15;71.60
12949;BME280;6539;49.476;8.484;2023-03-26T11:15:16;99228.91;;;13.51;74.30
12949;BME280;6539;49.476;8.484;2023-03-26T11:18:17;99226.13;;;13.91;71.05
12949;BME280;6539;49.476;8.484;2023-03-26T11:21:17;99227.00;;;13.78;71.13
12949;BME280;6539;49.476;8.484;2023-03-26T11:24:20;99220.88;;;13.74;71.30
12949;BME280;6539;49.476;8.484;2023-03-26T11:27:05;99215.63;;;13.67;69.18
12949;BME280;6539;49.476;8.484;2023-03-26T11:29:58;99215.00;;;13.63;68.74
12949;BME280;6539;49.476;8.484;2023-03-26T11:32:42;99205.13;;;13.93;67.47
12949;BME280;6539;49.476;8.484;2023-03-26T11:37:58;99202.72;;;14.13;64.97
12949;BME280;6539;49.476;8.484;2023-03-26T11:40:35;99212.72;;;14.29;63.43
12949;BME280;6539;49.476;8.484;2023-03-26T11:43:08;99206.91;;;14.36;62.40
12949;BME280;6539;49.476;8.484;2023-03-26T11:45:40;99196.78;;;14.42;61.46
12949;BME280;6539;49.476;8.484;2023-03-26T11:48:20;99207.22;;;14.38;58.57
12949;BME280;6539;49.476;8.484;2023-03-26T11:50:54;99201.81;;;14.34;55.89
12949;BME280;6539;49.476;8.484;2023-03-26T11:53:32;99206.41;;;14.28;56.85
12949;BME280;6539;49.476;8.484;2023-03-26T11:56:26;99208.09;;;14.26;57.59
12949;BME280;6539;49.476;8.484;2023-03-26T11:59:13;99210.22;;;14.04;58.86
12949;BME280;6539;49.476;8.484;2023-03-26T12:02:14;99215.56;;;13.98;60.33
12949;BME280;6539;49.476;8.484;2023-03-26T12:04:50;99225.81;;;13.89;61.53
12949;BME280;6539;49.476;8.484;2023-03-26T12:07:28;99221.34;;;13.91;62.67
12949;BME280;6539;49.476;8.484;2023-03-26T12:10:01;99227.19;;;13.93;63.16
12949;BME280;6539;49.476;8.484;2023-03-26T12:12:40;99208.94;;;13.87;63.86
12949;BME280;6539;49.476;8.484;2023-03-26T12:15:17;99209.41;;;13.85;63.72
12949;BME280;6539;49.476;8.484;2023-03-26T12:17:46;99206.81;;;13.91;64.70
12949;BME280;6539;49.476;8.484;2023-03-26T12:23:00;99203.75;;;13.89;63.48
12949;BME280;6539;49.476;8.484;2023-03-26T12:25:39;99205.00;;;14.06;63.76
12949;BME280;6539;49.476;8.484;2023-03-26T12:28:20;99205.63;;;14.28;63.90
12949;BME280;6539;49.476;8.484;2023-03-26T12:31:00;99202.91;;;14.46;61.68
12949;BME280;6539;49.476;8.484;2023-03-26T12:33:34;99185.41;;;14.67;60.63
12949;BME280;6539;49.476;8.484;2023-03-26T12:36:31;99190.25;;;15.08;60.94
12949;BME280;6539;49.476;8.484;2023-03-26T12:39:00;99186.78;;;15.32;60.69
12949;BME280;6539;49.476;8.484;2023-03-26T12:41:36;99176.53;;;15.65;58.78
12949;BME280;6539;49.476;8.484;2023-03-26T12:47:06;99164.34;;;15.95;49.48
12949;BME280;6539;49.476;8.484;2023-03-26T12:49:34;99173.47;;;16.10;51.08
12949;BME280;6539;49.476;8.484;2023-03-26T12:58:16;99170.38;;;16.55;47.04
12949;BME280;6539;49.476;8.484;2023-03-26T13:04:06;99179.75;;;16.34;46.39
12949;BME280;6539;49.476;8.484;2023-03-26T13:07:00;99174.22;;;16.34;47.42
12949;BME280;6539;49.476;8.484;2023-03-26T13:12:29;99168.63;;;15.72;47.28
12949;BME280;6539;49.476;8.484;2023-03-26T13:15:22;99163.00;;;15.67;49.37
12949;BME280;6539;49.476;8.484;2023-03-26T13:27:15;99150.16;;;16.40;47.26
12949;BME280;6539;49.476;8.484;2023-03-26T13:30:18;99142.66;;;16.55;47.09
12949;BME280;6539;49.476;8.484;2023-03-26T13:33:46;99140.47;;;16.89;47.03
12949;BME280;6539;49.476;8.484;2023-03-26T13:36:24;99135.91;;;16.86;43.21
12949;BME280;6539;49.476;8.484;2023-03-26T13:47:24;99140.44;;;15.83;41.31
12949;BME280;6539;49.476;8.484;2023-03-26T13:50:19;99147.63;;;15.66;40.90
12949;BME280;6539;49.476;8.484;2023-03-26T13:53:05;99137.50;;;15.63;41.35
12949;BME280;6539;49.476;8.484;2023-03-26T13:55:46;99134.84;;;15.68;42.29
12949;BME280;6539;49.476;8.484;2023-03-26T13:58:20;99135.38;;;15.58;41.35
12949;BME280;6539;49.476;8.484;2023-03-26T14:06:52;99133.72;;;15.51;44.45
12949;BME280;6539;49.476;8.484;2023-03-26T14:09:53;99127.88;;;15.49;43.48
12949;BME280;6539;49.476;8.484;2023-03-26T14:18:05;99129.81;;;15.25;44.65
12949;BME280;6539;49.476;8.484;2023-03-26T14:24:22;99121.72;;;15.12;42.69
12949;BME280;6539;49.476;8.484;2023-03-26T14:27:11;99121.13;;;15.08;43.08
12949;BME280;6539;49.476;8.484;2023-03-26T14:32:51;99119.34;;;14.96;43.07
12949;BME280;6539;49.476;8.484;2023-03-26T14:42:06;99124.34;;;14.56;45.44
12949;BME280;6539;49.476;8.484;2023-03-26T14:50:39;99124.03;;;14.09;47.54
12949;BME280;6539;49.476;8.484;2023-03-26T14:53:28;99127.44;;;14.04;48.04
12949;BME280;6539;49.476;8.484;2023-03-26T14:59:38;99134.16;;;13.75;48.21
12949;BME280;6539;49.476;8.484;2023-03-26T15:05:49;99149.75;;;13.60;50.41
12949;BME280;6539;49.476;8.484;2023-03-26T15:31:56;99163.00;;;12.82;54.49
12949;BME280;6539;49.476;8.484;2023-03-26T15:41:15;99162.00;;;12.67;55.70
12949;BME280;6539;49.476;8.484;2023-03-26T15:49:40;99180.31;;;12.61;55.70
12949;BME280;6539;49.476;8.484;2023-03-26T15:58:08;99192.19;;;12.37;57.20
12949;BME280;6539;49.476;8.484;2023-03-26T16:06:48;99207.28;;;12.32;57.63
12949;BME280;6539;49.476;8.484;2023-03-26T16:09:47;99208.72;;;12.37;58.14
12949;BME280;6539;49.476;8.484;2023-03-26T16:12:24;99213.56;;;12.33;58.22
12949;BME280;6539;49.476;8.484;2023-03-26T16:15:28;99214.13;;;12.27;58.71
12949;BME280;6539;49.476;8.484;2023-03-26T16:26:10;99231.91;;;12.01;60.62
12949;BME280;6539;49.476;8.484;2023-03-26T16:34:23;99242.16;;;12.01;60.32
12949;BME280;6539;49.476;8.484;2023-03-26T16:36:51;99246.97;;;11.97;60.47
12949;BME280;6539;49.476;8.484;2023-03-26T16:42:38;99246.97;;;11.97;60.60
12949;BME280;6539;49.476;8.484;2023-03-26T16:45:50;99239.34;;;11.79;61.18
12949;BME280;6539;49.476;8.484;2023-03-26T16:48:40;99243.38;;;11.87;60.63
12949;BME280;6539;49.476;8.484;2023-03-26T16:51:26;99250.09;;;11.86;61.13
12949;BME280;6539;49.476;8.484;2023-03-26T16:54:19;99252.06;;;11.98;60.73
12949;BME280;6539;49.476;8.484;2023-03-26T17:03:26;99251.97;;;11.89;60.76
12949;BME280;6539;49.476;8.484;2023-03-26T17:11:51;99254.84;;;11.86;61.25
12949;BME280;6539;49.476;8.484;2023-03-26T17:14:49;99261.97;;;11.83;61.48
12949;BME280;6539;49.476;8.484;2023-03-26T17:20:34;99263.69;;;11.65;62.45
12949;BME280;6539;49.476;8.484;2023-03-26T17:26:23;99260.09;;;11.68;63.13
12949;BME280;6539;49.476;8.484;2023-03-26T17:32:03;99259.44;;;11.64;63.17
12949;BME280;6539;49.476;8.484;2023-03-26T17:42:31;99250.66;;;11.69;63.25
12949;BME280;6539;49.476;8.484;2023-03-26T17:45:02;99259.78;;;11.78;63.08
12949;BME280;6539;49.476;8.484;2023-03-26T17:47:39;99249.22;;;11.77;62.94
12949;BME280;6539;49.476;8.484;2023-03-26T17:50:26;99262.75;;;11.84;63.46
12949;BME280;6539;49.476;8.484;2023-03-26T17:53:00;99253.72;;;11.96;63.19
12949;BME280;6539;49.476;8.484;2023-03-26T17:55:35;99269.44;;;11.95;63.65
12949;BME280;6539;49.476;8.484;2023-03-26T17:58:22;99271.09;;;12.05;61.96
12949;BME280;6539;49.476;8.484;2023-03-26T18:01:01;99260.75;;;11.84;63.01
12949;BME280;6539;49.476;8.484;2023-03-26T18:03:35;99264.50;;;11.90;62.75
12949;BME280;6539;49.476;8.484;2023-03-26T18:06:15;99265.16;;;11.94;62.43
12949;BME280;6539;49.476;8.484;2023-03-26T18:09:18;99257.78;;;11.91;62.38
12949;BME280;6539;49.476;8.484;2023-03-26T18:15:06;99272.00;;;11.77;63.06
12949;BME280;6539;49.476;8.484;2023-03-26T18:17:44;99266.25;;;11.72;63.01
12949;BME280;6539;49.476;8.484;2023-03-26T18:20:23;99275.06;;;11.79;62.63
12949;BME280;6539;49.476;8.484;2023-03-26T18:22:52;99276.06;;;11.73;63.25
12949;BME280;6539;49.476;8.484;2023-03-26T18:25:27;99286.63;;;11.74;62.64
12949;BME280;6539;49.476;8.484;2023-03-26T18:27:55;99280.63;;;11.63;63.33
12949;BME280;6539;49.476;8.484;2023-03-26T18:30:23;99278.22;;;11.52;63.74
12949;BME280;6539;49.476;8.484;2023-03-26T18:33:01;99279.66;;;11.57;64.03
12949;BME280;6539;49.476;8.484;2023-03-26T18:35:49;99273.69;;;11.59;64.12
12949;BME280;6539;49.476;8.484;2023-03-26T18:38:22;99270.97;;;11.59;63.83
12949;BME280;6539;49.476;8.484;2023-03-26T18:40:55;99272.59;;;11.56;63.94
12949;BME280;6539;49.476;8.484;2023-03-26T18:43:24;99267.88;;;11.57;63.90
12949;BME280;6539;49.476;8.484;2023-03-26T18:45:51;99269.00;;;11.59;64.15
12949;BME280;6539;49.476;8.484;2023-03-26T18:48:28;99264.81;;;11.55;63.62
12949;BME280;6539;49.476;8.484;2023-03-26T18:51:00;99266.56;;;11.61;63.60
12949;BME280;6539;49.476;8.484;2023-03-26T18:53:30;99257.25;;;11.71;63.59
12949;BME280;6539;49.476;8.484;2023-03-26T18:56:38;99261.94;;;11.58;63.33
12949;BME280;6539;49.476;8.484;2023-03-26T18:59:30;99256.78;;;11.60;63.04
12949;BME280;6539;49.476;8.484;2023-03-26T19:02:05;99250.84;;;11.62;62.61